Time;durP1;ratioP1;P1;durP2;ratioP2;P2;SDS_P1;SDS_P2;PMS_P1;PMS_P2;Temp;Humidity;BMP_temperature;BMP_pressure;BME280_temperature;BME280_humidity;BME280_pressure;Samples;Min_cycle;Max_cycle;Signal;HPM_P1;HPM_P2
2023/03/06 00:03:06;;;;;;;11.60;9.60;;;;;;;;;;10407867;27;20071;-63
2023/03/06 00:08:04;;;;;;;13.73;10.85;;;;;;;;;;10416789;27;20484;-62
2023/03/06 00:13:03;;;;;;;12.93;10.98;;;;;;;;;;10416938;27;20531;-62
2023/03/06 00:18:04;;;;;;;11.13;9.80;;;;;;;;;;10415612;27;20462;-62
2023/03/06 00:23:02;;;;;;;11.30;10.10;;;;;;;;;;10415922;27;20071;-62
2023/03/06 00:28:01;;;;;;;11.73;9.55;;;;;;;;;;10411841;27;20079;-62
2023/03/06 00:32:59;;;;;;;12.43;11.00;;;;;;;;;;10413396;27;20138;-62
2023/03/06 00:37:58;;;;;;;10.70;9.63;;;;;;;;;;10412261;27;20075;-62
2023/03/06 00:42:57;;;;;;;10.82;9.07;;;;;;;;;;10400744;27;20071;-62
2023/03/06 00:47:55;;;;;;;11.23;9.55;;;;;;;;;;10398423;27;20085;-62
2023/03/06 00:52:54;;;;;;;11.25;8.68;;;;;;;;;;10397265;27;20075;-63
2023/03/06 00:57:56;;;;;;;11.73;9.68;;;;;;;;;;10396511;27;20453;-62
2023/03/06 01:02:54;;;;;;;11.48;8.80;;;;;;;;;;10401997;27;20058;-62
2023/03/06 01:07:53;;;;;;;9.32;8.30;;;;;;;;;;10414852;27;20073;-62
2023/03/06 01:12:51;;;;;;;10.65;8.70;;;;;;;;;;10411748;27;20067;-62
2023/03/06 01:17:53;;;;;;;10.50;9.15;;;;;;;;;;10414019;27;20082;-62
2023/03/06 01:22:53;;;;;;;10.95;8.68;;;;;;;;;;10411740;27;20280;-62
2023/03/06 01:27:51;;;;;;;10.50;9.50;;;;;;;;;;10420245;27;20067;-63
2023/03/06 01:32:50;;;;;;;12.93;8.75;;;;;;;;;;10412796;27;20061;-62
2023/03/06 01:37:49;;;;;;;11.13;8.68;;;;;;;;;;10410382;27;20500;-62
2023/03/06 01:42:48;;;;;;;12.20;9.40;;;;;;;;;;10411606;27;20075;-62
2023/03/06 01:47:47;;;;;;;11.43;8.13;;;;;;;;;;10412161;28;20083;-61
2023/03/06 01:52:47;;;;;;;9.07;8.20;;;;;;;;;;10415390;28;20116;-62
2023/03/06 01:57:48;;;;;;;9.23;8.10;;;;;;;;;;10410630;28;20086;-62
2023/03/06 02:02:49;;;;;;;9.65;7.97;;;;;;;;;;10405766;28;20117;-61
2023/03/06 02:07:48;;;;;;;9.20;8.30;;;;;;;;;;10407868;28;20067;-62
2023/03/06 02:12:48;;;;;;;9.43;8.45;;;;;;;;;;10411128;28;20044;-62
2023/03/06 02:17:47;;;;;;;8.98;7.95;;;;;;;;;;10413333;28;20047;-62
2023/03/06 02:22:48;;;;;;;9.05;7.80;;;;;;;;;;10411257;28;20047;-62
2023/03/06 02:27:49;;;;;;;8.48;7.43;;;;;;;;;;10417386;27;20114;-62
2023/03/06 02:32:47;;;;;;;10.40;7.95;;;;;;;;;;10425371;27;20075;-62
2023/03/06 02:37:46;;;;;;;9.45;8.15;;;;;;;;;;10419633;27;20082;-63
2023/03/06 02:42:47;;;;;;;11.38;7.63;;;;;;;;;;10417427;27;20044;-62
2023/03/06 02:47:47;;;;;;;16.52;11.18;;;;;;;;;;10418724;27;20078;-62
2023/03/06 02:52:45;;;;;;;11.40;8.52;;;;;;;;;;10416926;27;20067;-63
2023/03/06 02:57:43;;;;;;;8.85;7.95;;;;;;;;;;10419491;27;20551;-63
2023/03/06 03:02:42;;;;;;;8.52;7.63;;;;;;;;;;10410955;27;20055;-62
2023/03/06 03:07:41;;;;;;;10.88;7.80;;;;;;;;;;10419217;27;20063;-63
2023/03/06 03:12:40;;;;;;;9.10;7.97;;;;;;;;;;10416399;27;20070;-62
2023/03/06 03:17:39;;;;;;;9.15;7.50;;;;;;;;;;10419362;27;20512;-63
2023/03/06 03:22:38;;;;;;;8.98;8.05;;;;;;;;;;10415898;27;20079;-62
2023/03/06 03:27:37;;;;;;;7.65;6.85;;;;;;;;;;10417361;27;20071;-63
2023/03/06 03:32:36;;;;;;;8.77;7.88;;;;;;;;;;10415682;27;20039;-62
2023/03/06 03:37:34;;;;;;;12.82;7.30;;;;;;;;;;10423511;27;20058;-63
2023/03/06 03:42:33;;;;;;;11.57;9.32;;;;;;;;;;10424568;27;20043;-62
2023/03/06 03:47:34;;;;;;;16.20;12.32;;;;;;;;;;10413981;27;20547;-62
2023/03/06 03:52:33;;;;;;;17.48;14.52;;;;;;;;;;10418884;27;20428;-62
2023/03/06 03:57:31;;;;;;;9.80;8.27;;;;;;;;;;10414154;27;20067;-61
2023/03/06 04:02:30;;;;;;;11.10;7.57;;;;;;;;;;10414055;27;20058;-62
2023/03/06 04:07:39;;;;;;;12.98;8.95;;;;;;;;;;10416419;27;20580;-62
2023/03/06 04:12:37;;;;;;;11.02;8.38;;;;;;;;;;10414877;27;20089;-62
2023/03/06 04:17:36;;;;;;;11.00;9.00;;;;;;;;;;10413939;27;20042;-61
2023/03/06 04:22:39;;;;;;;11.13;8.98;;;;;;;;;;10416432;27;20086;-61
2023/03/06 04:27:38;;;;;;;10.82;8.23;;;;;;;;;;10411496;27;20492;-62
2023/03/06 04:32:36;;;;;;;9.95;8.63;;;;;;;;;;10408046;27;20074;-62
2023/03/06 04:37:35;;;;;;;9.35;8.35;;;;;;;;;;10413948;27;20071;-61
2023/03/06 04:42:36;;;;;;;9.40;8.23;;;;;;;;;;10419329;27;20043;-63
2023/03/06 04:47:34;;;;;;;12.02;8.60;;;;;;;;;;10409583;27;20086;-63
2023/03/06 04:52:32;;;;;;;17.80;8.27;;;;;;;;;;10410299;27;20078;-63
2023/03/06 04:57:30;;;;;;;14.80;11.07;;;;;;;;;;10408924;27;20087;-63
2023/03/06 05:02:30;;;;;;;13.05;10.95;;;;;;;;;;10411411;27;20066;-63
2023/03/06 05:07:28;;;;;;;13.38;11.88;;;;;;;;;;10406708;27;20528;-63
2023/03/06 05:12:26;;;;;;;11.63;10.40;;;;;;;;;;10409572;27;20070;-63
2023/03/06 05:17:24;;;;;;;10.77;9.13;;;;;;;;;;10407055;27;20067;-63
2023/03/06 05:22:24;;;;;;;15.95;11.88;;;;;;;;;;10411177;27;20500;-62
2023/03/06 05:27:22;;;;;;;14.05;12.15;;;;;;;;;;10413107;27;20067;-64
2023/03/06 05:32:20;;;;;;;17.75;12.30;;;;;;;;;;10415006;27;20092;-63
2023/03/06 05:37:19;;;;;;;14.55;10.60;;;;;;;;;;10409214;27;20082;-63
2023/03/06 05:42:18;;;;;;;16.85;11.95;;;;;;;;;;10414916;27;20075;-64
2023/03/06 05:47:16;;;;;;;17.10;12.05;;;;;;;;;;10409563;27;20044;-63
2023/03/06 05:52:16;;;;;;;15.88;11.10;;;;;;;;;;10406723;27;20083;-63
2023/03/06 05:57:14;;;;;;;14.52;10.70;;;;;;;;;;10411405;27;20497;-63
2023/03/06 06:02:13;;;;;;;19.45;13.95;;;;;;;;;;10416282;27;20067;-62
2023/03/06 06:07:13;;;;;;;22.23;15.93;;;;;;;;;;10419897;27;20075;-62
2023/03/06 06:12:11;;;;;;;20.65;14.60;;;;;;;;;;10419238;27;20074;-63
2023/03/06 06:17:11;;;;;;;25.65;18.38;;;;;;;;;;10418367;27;20534;-62
2023/03/06 06:22:10;;;;;;;20.33;15.25;;;;;;;;;;10418808;27;20078;-63
2023/03/06 06:27:09;;;;;;;26.05;18.40;;;;;;;;;;10419546;27;20075;-62
2023/03/06 06:32:07;;;;;;;15.75;13.65;;;;;;;;;;10419445;27;20077;-62
2023/03/06 06:37:06;;;;;;;23.98;16.73;;;;;;;;;;10422245;27;20044;-63
2023/03/06 06:42:07;;;;;;;14.88;13.05;;;;;;;;;;10419238;27;20507;-63
2023/03/06 06:47:25;;;;;;;17.05;13.90;;;;;;;;;;10419378;27;20079;-63
2023/03/06 06:52:24;;;;;;;17.73;13.15;;;;;;;;;;10419732;27;20093;-62
2023/03/06 06:57:23;;;;;;;16.67;13.18;;;;;;;;;;10411223;27;20499;-61
2023/03/06 07:02:21;;;;;;;17.77;13.48;;;;;;;;;;10416852;27;20074;-62
2023/03/06 07:07:19;;;;;;;24.70;16.00;;;;;;;;;;10417356;27;20081;-62
2023/03/06 07:12:18;;;;;;;16.80;12.82;;;;;;;;;;10415842;27;20071;-63
2023/03/06 07:17:17;;;;;;;21.65;16.17;;;;;;;;;;10415751;27;20075;-63
2023/03/06 07:22:15;;;;;;;17.52;14.00;;;;;;;;;;10408536;27;20075;-62
2023/03/06 07:27:13;;;;;;;22.73;18.67;;;;;;;;;;10415566;27;20082;-63
2023/03/06 07:32:12;;;;;;;28.33;20.10;;;;;;;;;;10416010;27;20588;-62
2023/03/06 07:37:11;;;;;;;25.77;18.45;;;;;;;;;;10415260;27;20067;-62
2023/03/06 07:42:10;;;;;;;29.00;19.85;;;;;;;;;;10413350;27;20110;-62
2023/03/06 07:47:16;;;;;;;25.25;18.30;;;;;;;;;;10415456;27;20086;-61
2023/03/06 07:52:15;;;;;;;26.45;19.25;;;;;;;;;;10415384;27;20078;-62
2023/03/06 07:57:14;;;;;;;45.72;24.55;;;;;;;;;;10415237;27;20525;-62
2023/03/06 08:02:12;;;;;;;23.08;17.80;;;;;;;;;;10417147;27;20067;-62
2023/03/06 08:07:11;;;;;;;20.58;16.20;;;;;;;;;;10415052;27;20106;-62
2023/03/06 08:12:11;;;;;;;18.77;15.75;;;;;;;;;;10417171;27;20069;-62
2023/03/06 08:17:10;;;;;;;33.78;22.52;;;;;;;;;;10417724;27;20073;-62
2023/03/06 08:22:09;;;;;;;28.35;19.95;;;;;;;;;;10410499;27;20090;-61
2023/03/06 08:27:08;;;;;;;25.20;18.55;;;;;;;;;;10413940;27;20446;-62
2023/03/06 08:32:10;;;;;;;29.30;21.77;;;;;;;;;;10413242;27;20078;-62
2023/03/06 08:37:08;;;;;;;19.08;15.00;;;;;;;;;;10403195;27;20079;-63
2023/03/06 08:42:07;;;;;;;16.00;13.18;;;;;;;;;;10410884;27;20476;-62
2023/03/06 08:47:05;;;;;;;24.55;17.70;;;;;;;;;;10415294;27;20083;-62
2023/03/06 08:52:05;;;;;;;24.40;17.60;;;;;;;;;;10412802;27;20543;-63
2023/03/06 08:57:03;;;;;;;24.52;16.85;;;;;;;;;;10412529;27;20075;-63
2023/03/06 09:02:02;;;;;;;19.48;15.70;;;;;;;;;;10414251;27;20075;-63
2023/03/06 09:07:01;;;;;;;17.23;14.38;;;;;;;;;;10411739;27;20070;-63
2023/03/06 09:12:00;;;;;;;24.55;17.73;;;;;;;;;;10404230;27;20070;-63
2023/03/06 09:16:58;;;;;;;23.73;14.45;;;;;;;;;;10403190;27;20074;-63
2023/03/06 09:21:59;;;;;;;19.52;15.95;;;;;;;;;;10412287;27;20086;-63
2023/03/06 09:26:58;;;;;;;20.33;15.93;;;;;;;;;;10406546;27;20092;-63
2023/03/06 09:31:57;;;;;;;19.50;15.40;;;;;;;;;;10413191;27;20079;-62
2023/03/06 09:36:55;;;;;;;19.27;13.75;;;;;;;;;;10411869;27;20059;-64
2023/03/06 09:41:55;;;;;;;21.10;16.52;;;;;;;;;;10408668;27;20079;-63
2023/03/06 09:47:07;;;;;;;24.85;18.40;;;;;;;;;;10410842;27;20479;-63
2023/03/06 09:52:10;;;;;;;23.85;16.48;;;;;;;;;;10412894;28;20082;-63
2023/03/06 09:57:14;;;;;;;21.98;17.00;;;;;;;;;;10402045;28;20047;-63
2023/03/06 10:02:14;;;;;;;19.27;16.23;;;;;;;;;;10407590;28;20074;-62
2023/03/06 10:07:14;;;;;;;21.98;15.40;;;;;;;;;;10406416;28;20063;-63
2023/03/06 10:12:19;;;;;;;21.42;15.98;;;;;;;;;;10411481;28;20070;-63
2023/03/06 10:17:24;;;;;;;24.25;16.58;;;;;;;;;;10401146;28;20066;-63
2023/03/06 10:22:26;;;;;;;18.95;14.27;;;;;;;;;;10404584;28;20512;-63
2023/03/06 10:27:30;;;;;;;18.92;15.65;;;;;;;;;;10405637;27;20071;-62
2023/03/06 10:32:32;;;;;;;23.33;16.90;;;;;;;;;;10409172;28;20078;-63
2023/03/06 10:37:45;;;;;;;27.30;22.77;;;;;;;;;;10411656;28;20040;-63
2023/03/06 10:42:43;;;;;;;22.67;18.95;;;;;;;;;;10410987;28;20078;-64
2023/03/06 10:47:43;;;;;;;23.58;17.63;;;;;;;;;;10413269;27;20075;-63
2023/03/06 10:52:41;;;;;;;22.65;17.70;;;;;;;;;;10419206;27;20542;-64
2023/03/06 10:57:39;;;;;;;24.50;17.75;;;;;;;;;;10416290;27;20074;-63
2023/03/06 11:02:39;;;;;;;27.25;20.40;;;;;;;;;;10410955;27;20078;-63
2023/03/06 11:07:53;;;;;;;22.45;17.83;;;;;;;;;;10413535;27;20117;-64
2023/03/06 11:12:58;;;;;;;21.83;16.60;;;;;;;;;;10414707;27;20071;-64
2023/03/06 11:17:59;;;;;;;28.33;18.52;;;;;;;;;;10414400;27;20075;-63
2023/03/06 11:23:02;;;;;;;22.48;16.65;;;;;;;;;;10416969;27;20078;-64
2023/03/06 11:28:02;;;;;;;23.67;19.08;;;;;;;;;;10416740;27;20523;-64
2023/03/06 11:33:03;;;;;;;25.02;16.98;;;;;;;;;;10420983;27;20078;-64
2023/03/06 11:38:05;;;;;;;25.75;17.58;;;;;;;;;;10417897;27;20067;-65
2023/03/06 11:43:12;;;;;;;27.33;22.67;;;;;;;;;;10416748;27;20483;-65
2023/03/06 11:48:20;;;;;;;27.95;21.45;;;;;;;;;;10417145;27;20062;-65
2023/03/06 11:53:21;;;;;;;23.80;19.27;;;;;;;;;;10411302;27;20452;-65
2023/03/06 11:58:33;;;;;;;23.45;18.58;;;;;;;;;;10416290;27;20075;-65
2023/03/06 12:03:46;;;;;;;23.13;18.00;;;;;;;;;;10412355;27;20082;-65
2023/03/06 12:08:51;;;;;;;23.08;17.70;;;;;;;;;;10416318;27;20193;-64
2023/03/06 12:13:49;;;;;;;;;;;;;;;;;;10416082;27;20138;-64
2023/03/06 12:18:54;;;;;;;25.13;18.13;;;;;;;;;;10417082;27;19962;-64
2023/03/06 12:23:57;;;;;;;22.00;16.17;;;;;;;;;;10410581;27;20071;-63
2023/03/06 12:29:04;;;;;;;22.65;16.45;;;;;;;;;;10412479;27;20686;-64
2023/03/06 12:34:13;;;;;;;27.95;18.90;;;;;;;;;;10411835;27;20074;-64
2023/03/06 12:39:22;;;;;;;26.73;19.83;;;;;;;;;;10413461;27;20416;-64
2023/03/06 12:44:32;;;;;;;24.40;18.35;;;;;;;;;;10412740;27;20070;-64
2023/03/06 12:49:37;;;;;;;22.63;15.65;;;;;;;;;;10415478;27;20087;-64
2023/03/06 12:54:38;;;;;;;21.30;15.43;;;;;;;;;;10415912;27;20042;-65
2023/03/06 12:59:43;;;;;;;22.63;15.57;;;;;;;;;;10410522;27;20082;-65
2023/03/06 13:04:46;;;;;;;19.77;14.88;;;;;;;;;;10413879;27;20069;-64
2023/03/06 13:09:58;;;;;;;17.75;13.73;;;;;;;;;;10413915;27;20118;-65
2023/03/06 13:14:59;;;;;;;16.95;12.90;;;;;;;;;;10415755;27;20445;-65
2023/03/06 13:20:16;;;;;;;22.05;15.98;;;;;;;;;;10413148;27;20647;-65
2023/03/06 13:25:33;;;;;;;18.90;16.00;;;;;;;;;;10412914;27;20089;-65
2023/03/06 13:30:45;;;;;;;13.25;10.30;;;;;;;;;;10414810;27;20073;-64
2023/03/06 13:35:48;;;;;;;15.60;12.05;;;;;;;;;;10414667;27;20059;-65
2023/03/06 13:40:46;;;;;;;16.58;11.48;;;;;;;;;;10410830;27;20520;-64
2023/03/06 13:45:46;;;;;;;16.88;12.40;;;;;;;;;;10414405;27;20074;-65
2023/03/06 13:50:46;;;;;;;15.93;11.00;;;;;;;;;;10412830;27;20063;-65
2023/03/06 13:55:48;;;;;;;15.68;11.23;;;;;;;;;;10413102;28;20059;-65
2023/03/06 14:00:54;;;;;;;15.30;12.52;;;;;;;;;;10413551;28;20527;-65
2023/03/06 14:05:52;;;;;;;22.70;17.80;;;;;;;;;;10412146;28;20070;-64
2023/03/06 14:10:58;;;;;;;13.30;10.93;;;;;;;;;;10410518;28;20054;-66
2023/03/06 14:15:58;;;;;;;16.83;12.00;;;;;;;;;;10408927;28;20082;-65
2023/03/06 14:20:58;;;;;;;39.17;25.27;;;;;;;;;;10414203;27;20071;-64
2023/03/06 14:26:02;;;;;;;18.25;12.43;;;;;;;;;;10420407;27;20070;-65
2023/03/06 14:31:02;;;;;;;18.50;13.13;;;;;;;;;;10420096;27;20063;-65
2023/03/06 14:36:02;;;;;;;13.20;10.52;;;;;;;;;;10418935;27;20066;-65
2023/03/06 14:41:01;;;;;;;13.85;9.18;;;;;;;;;;10421399;27;20074;-65
2023/03/06 14:46:00;;;;;;;20.13;14.63;;;;;;;;;;10419920;27;20051;-65
2023/03/06 14:51:01;;;;;;;17.00;12.35;;;;;;;;;;10419395;27;20047;-65
2023/03/06 14:56:00;;;;;;;12.60;9.90;;;;;;;;;;10418913;27;20080;-65
2023/03/06 15:01:01;;;;;;;14.77;10.50;;;;;;;;;;10421663;27;20086;-65
2023/03/06 15:06:00;;;;;;;28.40;20.90;;;;;;;;;;10421770;27;20067;-65
2023/03/06 15:10:59;;;;;;;19.63;13.50;;;;;;;;;;10413367;27;20495;-65
2023/03/06 15:15:58;;;;;;;66.05;33.67;;;;;;;;;;10417935;27;20093;-63
2023/03/06 15:21:07;;;;;;;106.32;60.03;;;;;;;;;;10418518;27;20039;-66
2023/03/06 15:26:25;;;;;;;110.93;65.43;;;;;;;;;;10418029;27;20070;-64
2023/03/06 15:31:26;;;;;;;75.57;50.95;;;;;;;;;;10415778;27;20093;-64
2023/03/06 15:36:28;;;;;;;25.50;19.65;;;;;;;;;;10412930;27;20067;-64
2023/03/06 15:41:29;;;;;;;26.63;21.75;;;;;;;;;;10412841;27;20074;-63
2023/03/06 15:46:28;;;;;;;35.13;23.58;;;;;;;;;;10403477;27;20067;-62
2023/03/06 15:51:27;;;;;;;43.13;31.27;;;;;;;;;;10414183;27;20070;-62
2023/03/06 15:56:28;;;;;;;76.05;48.03;;;;;;;;;;10402734;27;20070;-63
2023/03/06 16:01:26;;;;;;;82.50;55.95;;;;;;;;;;10401974;27;20086;-62
2023/03/06 16:06:25;;;;;;;41.67;34.65;;;;;;;;;;10412363;27;20073;-63
2023/03/06 16:11:27;;;;;;;46.25;41.22;;;;;;;;;;10414814;27;20063;-62
2023/03/06 16:16:39;;;;;;;59.10;48.92;;;;;;;;;;10408642;27;20066;-62
2023/03/06 16:21:37;;;;;;;69.43;51.15;;;;;;;;;;10411366;27;20063;-62
2023/03/06 16:26:37;;;;;;;61.83;49.20;;;;;;;;;;10412123;27;20055;-62
2023/03/06 16:31:35;;;;;;;248.68;150.70;;;;;;;;;;10414896;27;20059;-62
2023/03/06 16:36:33;;;;;;;199.32;131.90;;;;;;;;;;10412906;27;20075;-62
2023/03/06 16:41:32;;;;;;;130.80;89.45;;;;;;;;;;10412787;27;20153;-61
2023/03/06 16:46:31;;;;;;;103.28;76.30;;;;;;;;;;10405293;27;20082;-62
2023/03/06 16:51:36;;;;;;;40.78;31.85;;;;;;;;;;10412324;27;20089;-62
2023/03/06 16:56:34;;;;;;;22.02;16.60;;;;;;;;;;10413824;27;20063;-62
2023/03/06 17:01:33;;;;;;;25.27;17.45;;;;;;;;;;10409351;27;20071;-62
2023/03/06 17:06:32;;;;;;;44.40;32.38;;;;;;;;;;10411604;27;20070;-62
2023/03/06 17:11:30;;;;;;;23.92;19.30;;;;;;;;;;10410873;27;20067;-61
2023/03/06 17:16:28;;;;;;;62.47;44.78;;;;;;;;;;10405908;27;20074;-62
2023/03/06 17:21:29;;;;;;;37.72;27.98;;;;;;;;;;10412352;27;20050;-62
2023/03/06 17:26:27;;;;;;;33.45;24.35;;;;;;;;;;10413914;27;20489;-62
2023/03/06 17:31:26;;;;;;;31.45;22.83;;;;;;;;;;10409072;27;20075;-62
2023/03/06 17:36:24;;;;;;;59.67;43.03;;;;;;;;;;10410984;27;20068;-62
2023/03/06 17:41:24;;;;;;;65.85;46.92;;;;;;;;;;10399959;27;20437;-62
2023/03/06 17:46:22;;;;;;;24.70;18.70;;;;;;;;;;10410453;27;20071;-62
2023/03/06 17:51:20;;;;;;;32.92;22.80;;;;;;;;;;10403051;27;20112;-61
2023/03/06 17:56:18;;;;;;;34.53;24.33;;;;;;;;;;10416907;27;20070;-61
2023/03/06 18:01:19;;;;;;;21.77;18.27;;;;;;;;;;10420309;27;20086;-62
2023/03/06 18:06:18;;;;;;;22.92;17.90;;;;;;;;;;10418893;27;20778;-63
2023/03/06 18:11:16;;;;;;;32.40;24.73;;;;;;;;;;10424950;27;20508;-63
2023/03/06 18:16:16;;;;;;;41.65;32.63;;;;;;;;;;10424558;27;20058;-62
2023/03/06 18:21:16;;;;;;;38.55;29.73;;;;;;;;;;10414698;27;20149;-62
2023/03/06 18:26:15;;;;;;;41.03;30.73;;;;;;;;;;10415179;27;20540;-63
2023/03/06 18:31:14;;;;;;;43.33;32.80;;;;;;;;;;10424960;27;20467;-63
2023/03/06 18:36:12;;;;;;;78.95;53.63;;;;;;;;;;10420873;27;20071;-63
2023/03/06 18:41:12;;;;;;;65.07;44.85;;;;;;;;;;10422699;27;20063;-63
2023/03/06 18:46:10;;;;;;;47.63;32.13;;;;;;;;;;10420402;27;20071;-62
2023/03/06 18:51:10;;;;;;;44.97;29.98;;;;;;;;;;10417155;27;20056;-63
2023/03/06 18:56:09;;;;;;;42.60;30.45;;;;;;;;;;10412681;27;20073;-63
2023/03/06 19:01:09;;;;;;;34.83;23.08;;;;;;;;;;10424378;27;20485;-64
2023/03/06 19:06:08;;;;;;;26.67;20.95;;;;;;;;;;10419546;27;20516;-63
2023/03/06 19:11:07;;;;;;;31.40;24.83;;;;;;;;;;10420236;27;20071;-62
2023/03/06 19:16:06;;;;;;;24.52;19.73;;;;;;;;;;10417077;27;20067;-62
2023/03/06 19:21:10;;;;;;;22.67;16.63;;;;;;;;;;10415743;27;20047;-63
2023/03/06 19:26:08;;;;;;;26.40;19.13;;;;;;;;;;10410305;27;20573;-61
2023/03/06 19:31:10;;;;;;;25.35;19.10;;;;;;;;;;10414015;27;20075;-62
2023/03/06 19:36:11;;;;;;;18.70;12.77;;;;;;;;;;10416693;27;20082;-62
2023/03/06 19:41:12;;;;;;;30.40;23.15;;;;;;;;;;10419194;27;20083;-62
2023/03/06 19:46:10;;;;;;;29.55;23.83;;;;;;;;;;10414367;27;20075;-62
2023/03/06 19:51:10;;;;;;;20.58;16.40;;;;;;;;;;10409046;27;20070;-62
2023/03/06 19:56:09;;;;;;;18.75;14.98;;;;;;;;;;10416154;27;20074;-62
2023/03/06 20:01:08;;;;;;;17.92;13.18;;;;;;;;;;10410369;27;20075;-62
2023/03/06 20:06:08;;;;;;;20.95;15.57;;;;;;;;;;10403190;27;20071;-62
2023/03/06 20:11:14;;;;;;;24.42;18.08;;;;;;;;;;10412014;27;20495;-62
2023/03/06 20:16:12;;;;;;;23.73;17.52;;;;;;;;;;10401768;27;20480;-62
2023/03/06 20:21:11;;;;;;;18.77;14.95;;;;;;;;;;10413369;27;20078;-62
2023/03/06 20:26:11;;;;;;;91.75;44.22;;;;;;;;;;10410341;27;20071;-60
2023/03/06 20:31:12;;;;;;;86.80;37.90;;;;;;;;;;10416035;27;20070;-62
2023/03/06 20:36:11;;;;;;;24.92;15.50;;;;;;;;;;10413643;27;20658;-62
2023/03/06 20:41:14;;;;;;;20.20;14.95;;;;;;;;;;10415930;27;20504;-62
2023/03/06 20:46:13;;;;;;;16.35;13.45;;;;;;;;;;10411140;27;20078;-62
2023/03/06 20:51:16;;;;;;;17.95;12.13;;;;;;;;;;10414204;27;20078;-62
2023/03/06 20:56:17;;;;;;;13.82;9.57;;;;;;;;;;10413328;27;20063;-62
2023/03/06 21:01:18;;;;;;;12.80;9.88;;;;;;;;;;10411435;27;20091;-62
2023/03/06 21:06:17;;;;;;;15.35;10.43;;;;;;;;;;10409743;27;20067;-61
2023/03/06 21:11:17;;;;;;;16.92;11.05;;;;;;;;;;10404921;27;20063;-62
2023/03/06 21:16:16;;;;;;;17.63;11.35;;;;;;;;;;10413171;27;20044;-62
2023/03/06 21:21:17;;;;;;;20.73;14.13;;;;;;;;;;10412826;27;20475;-62
2023/03/06 21:26:19;;;;;;;17.00;11.25;;;;;;;;;;10411515;27;20491;-62
2023/03/06 21:31:21;;;;;;;18.48;13.45;;;;;;;;;;10413526;27;20071;-62
2023/03/06 21:36:21;;;;;;;18.50;13.43;;;;;;;;;;10410348;27;20078;-62
2023/03/06 21:41:23;;;;;;;26.00;17.85;;;;;;;;;;10411789;27;20551;-62
2023/03/06 21:46:21;;;;;;;16.50;11.05;;;;;;;;;;10412800;27;20546;-62
2023/03/06 21:51:22;;;;;;;12.77;9.57;;;;;;;;;;10411906;27;20075;-62
2023/03/06 21:56:23;;;;;;;21.55;15.23;;;;;;;;;;10414293;28;20074;-61
2023/03/06 22:01:22;;;;;;;75.10;52.78;;;;;;;;;;10411689;28;20067;-61
2023/03/06 22:06:22;;;;;;;63.38;42.65;;;;;;;;;;10411026;27;20102;-61
2023/03/06 22:11:21;;;;;;;47.80;32.22;;;;;;;;;;10409992;28;20063;-62
2023/03/06 22:16:20;;;;;;;39.85;26.92;;;;;;;;;;10413340;28;20046;-62
2023/03/06 22:21:20;;;;;;;45.20;30.70;;;;;;;;;;10412687;27;20424;-62
2023/03/06 22:26:18;;;;;;;57.92;38.13;;;;;;;;;;10412953;28;20078;-61
2023/03/06 22:31:17;;;;;;;46.08;32.80;;;;;;;;;;10410863;28;20076;-62
2023/03/06 22:36:17;;;;;;;52.53;35.13;;;;;;;;;;10408065;28;20070;-62
2023/03/06 22:41:16;;;;;;;45.17;31.05;;;;;;;;;;10410424;27;20075;-62
2023/03/06 22:46:16;;;;;;;34.22;24.92;;;;;;;;;;10419410;27;20311;-62
2023/03/06 22:51:15;;;;;;;38.00;24.45;;;;;;;;;;10421487;27;20063;-61
2023/03/06 22:56:16;;;;;;;45.00;28.10;;;;;;;;;;10419812;27;20071;-62
2023/03/06 23:01:15;;;;;;;28.58;20.08;;;;;;;;;;10420355;27;20165;-62
2023/03/06 23:06:14;;;;;;;20.48;13.05;;;;;;;;;;10418794;27;20509;-62
2023/03/06 23:11:14;;;;;;;14.85;12.13;;;;;;;;;;10411991;27;20055;-61
2023/03/06 23:16:32;;;;;;;12.10;9.27;;;;;;;;;;10415366;27;20091;-61
2023/03/06 23:21:49;;;;;;;12.82;9.00;;;;;;;;;;10418890;27;20505;-62
2023/03/06 23:27:05;;;;;;;11.82;10.02;;;;;;;;;;10420562;27;20079;-61
2023/03/06 23:32:06;;;;;;;19.75;12.52;;;;;;;;;;10412166;27;20075;-62
2023/03/06 23:37:04;;;;;;;21.90;14.07;;;;;;;;;;10417588;27;20043;-62
2023/03/06 23:42:02;;;;;;;18.23;13.88;;;;;;;;;;10427355;27;20043;-62
2023/03/06 23:47:01;;;;;;;16.38;12.40;;;;;;;;;;10416815;27;20082;-62
2023/03/06 23:52:00;;;;;;;37.85;23.45;;;;;;;;;;10417061;27;20078;-62
2023/03/06 23:56:58;;;;;;;36.63;22.70;;;;;;;;;;10415507;27;20075;-62
